Time;durP1;ratioP1;P1;durP2;ratioP2;P2;SDS_P1;SDS_P2;PMS_P1;PMS_P2;Temp;Humidity;BMP_temperature;BMP_pressure;BME280_temperature;BME280_humidity;BME280_pressure;Samples;Min_cycle;Max_cycle;Signal;HPM_P1;HPM_P2
2022/01/26 00:06:28;;;;;;;;;;;1.10;99.90;;;;;;5000165;28;19914;-81
2022/01/26 00:08:54;;;;;;;;;;;1.10;99.90;;;;;;4976080;28;19964;-82
2022/01/26 00:11:20;;;;;;;;;;;1.10;99.90;;;;;;4977049;28;19929;-82
2022/01/26 00:13:45;;;;;;;;;;;1.10;99.90;;;;;;4992853;28;19918;-82
2022/01/26 00:16:23;;;;;;;;;;;1.10;99.90;;;;;;4975884;28;19914;-81
2022/01/26 00:18:49;;;;;;;;;;;1.20;99.90;;;;;;4996273;23;19976;-80
2022/01/26 00:21:26;;;;;;;;;;;1.10;99.90;;;;;;4990779;28;19953;-80
2022/01/26 00:26:33;;;;;;;;;;;1.00;99.90;;;;;;5011821;28;19913;-80
2022/01/26 00:29:13;;;;;;;;;;;1.00;99.90;;;;;;5005977;28;20454;-80
2022/01/26 00:40:10;;;;;;;;;;;1.10;99.90;;;;;;4992306;28;20021;-80
2022/01/26 00:42:39;;;;;;;;;;;1.10;99.90;;;;;;4972859;28;19960;-80
2022/01/26 00:45:05;;;;;;;;;;;1.10;99.90;;;;;;4986964;28;20008;-80
2022/01/26 00:47:31;;;;;;;;;;;1.10;99.90;;;;;;4972873;28;19914;-80
2022/01/26 00:50:01;;;;;;;;;;;1.10;99.90;;;;;;4973933;28;20311;-81
2022/01/26 00:52:38;;;;;;;;;;;1.00;99.90;;;;;;4987693;28;19920;-81
2022/01/26 00:55:04;;;;;;;;;;;1.00;99.90;;;;;;4992035;28;19914;-80
2022/01/26 00:57:30;;;;;;;;;;;1.00;99.90;;;;;;4991838;28;19921;-81
2022/01/26 00:59:58;;;;;;;;;;;1.00;99.90;;;;;;4975214;28;19918;-81
2022/01/26 01:02:23;;;;;;;;;;;1.00;99.90;;;;;;4975627;28;19964;-81
2022/01/26 01:04:49;;;;;;;;;;;1.00;99.90;;;;;;4975823;28;19918;-81
2022/01/26 01:07:19;;;;;;;;;;;1.00;99.90;;;;;;4972428;28;19993;-81
2022/01/26 01:09:45;;;;;;;;;;;1.10;99.90;;;;;;4987720;28;19922;-80
2022/01/26 01:12:11;;;;;;;;;;;1.10;99.90;;;;;;4973778;28;20004;-81
2022/01/26 01:14:39;;;;;;;;;;;1.10;99.90;;;;;;4972729;28;20340;-81
2022/01/26 01:17:06;;;;;;;;;;;1.00;99.90;;;;;;4984375;28;19976;-80
2022/01/26 01:19:44;;;;;;;;;;;1.10;99.90;;;;;;4975379;28;19922;-81
2022/01/26 01:22:33;;;;;;;;;;;1.00;99.90;;;;;;4987399;28;19914;-81
2022/01/26 01:30:29;;;;;;;;;;;1.00;99.90;;;;;;4965328;28;19988;-81
2022/01/26 01:33:09;;;;;;;;;;;1.00;99.90;;;;;;4988936;28;19918;-80
2022/01/26 01:35:37;;;;;;;;;;;1.00;99.90;;;;;;4971574;28;19984;-81
2022/01/26 01:38:39;;;;;;;;;;;0.90;99.90;;;;;;4972003;28;19957;-81
2022/01/26 01:40:54;;;;;;;;;;;0.90;99.90;;;;;;4969773;28;20473;-81
2022/01/26 01:43:21;;;;;;;;;;;0.90;99.90;;;;;;4972121;28;19918;-81
2022/01/26 01:45:50;;;;;;;;;;;0.90;99.90;;;;;;4973386;28;19917;-81
2022/01/26 01:48:19;;;;;;;;;;;0.90;99.90;;;;;;4967938;28;19917;-81
2022/01/26 01:50:45;;;;;;;;;;;0.90;99.90;;;;;;4979077;28;19922;-81
2022/01/26 01:53:13;;;;;;;;;;;0.90;99.90;;;;;;4971753;28;19914;-81
2022/01/26 01:55:42;;;;;;;;;;;0.90;99.90;;;;;;4972743;28;19910;-81
2022/01/26 01:58:09;;;;;;;;;;;0.90;99.90;;;;;;4983685;28;19968;-80
2022/01/26 02:00:35;;;;;;;;;;;0.90;99.90;;;;;;4970887;28;19922;-81
2022/01/26 02:03:01;;;;;;;;;;;0.80;99.90;;;;;;4972712;28;20419;-81
2022/01/26 02:05:26;;;;;;;;;;;0.80;99.90;;;;;;4961858;28;19914;-81
2022/01/26 02:07:52;;;;;;;;;;;0.80;99.90;;;;;;4955226;28;20288;-81
2022/01/26 02:10:19;;;;;;;;;;;0.80;99.90;;;;;;4971175;28;19992;-81
2022/01/26 02:12:49;;;;;;;;;;;0.90;99.90;;;;;;4972547;28;19925;-81
2022/01/26 02:15:23;;;;;;;;;;;0.90;99.90;;;;;;4974699;28;20450;-81
2022/01/26 02:18:13;;;;;;;;;;;0.90;99.90;;;;;;4990962;28;20467;-81
2022/01/26 02:56:06;;;;;;;;;;;0.80;99.90;;;;;;4970821;28;20385;-81
2022/01/26 03:03:41;;;;;;;;;;;0.90;99.90;;;;;;4964898;28;19918;-80
2022/01/26 03:06:12;;;;;;;;;;;0.90;99.90;;;;;;4961964;28;19960;-81
2022/01/26 03:08:48;;;;;;;;;;;0.90;99.90;;;;;;4958361;28;20435;-80
2022/01/26 03:11:15;;;;;;;;;;;0.90;99.90;;;;;;4986550;28;19921;-81
2022/01/26 03:13:47;;;;;;;;;;;0.80;99.90;;;;;;4986154;28;20527;-81
2022/01/26 03:16:23;;;;;;;;;;;0.80;99.90;;;;;;4989906;28;20273;-81
2022/01/26 03:21:27;;;;;;;;;;;0.70;99.90;;;;;;4982504;28;19960;-81
2022/01/26 03:34:34;;;;;;;;;;;0.70;99.90;;;;;;4975521;28;20300;-81
2022/01/26 03:37:05;;;;;;;;;;;0.80;99.90;;;;;;4976781;28;19922;-81
2022/01/26 03:39:39;;;;;;;;;;;0.80;99.90;;;;;;4958542;28;19919;-81
2022/01/26 03:42:07;;;;;;;;;;;0.80;99.90;;;;;;4974071;28;19922;-80
2022/01/26 03:44:33;;;;;;;;;;;0.80;99.90;;;;;;4957868;28;20331;-81
2022/01/26 03:46:59;;;;;;;;;;;0.80;99.90;;;;;;4976082;28;19914;-81
2022/01/26 03:49:24;;;;;;;;;;;0.80;99.90;;;;;;4991614;28;19924;-81
2022/01/26 03:51:50;;;;;;;;;;;0.80;99.90;;;;;;4994585;28;19914;-81
2022/01/26 03:54:17;;;;;;;;;;;0.90;99.90;;;;;;4994285;28;19918;-81
2022/01/26 03:56:43;;;;;;;;;;;0.80;99.90;;;;;;4985124;28;19925;-81
2022/01/26 03:59:09;;;;;;;;;;;0.90;99.90;;;;;;4963754;28;19914;-81
2022/01/26 04:01:35;;;;;;;;;;;0.80;99.90;;;;;;4971365;28;19922;-81
2022/01/26 04:04:01;;;;;;;;;;;0.80;99.90;;;;;;4975033;28;19934;-81
2022/01/26 04:06:29;;;;;;;;;;;0.80;99.90;;;;;;4973766;28;19969;-80
2022/01/26 04:08:54;;;;;;;;;;;0.80;99.90;;;;;;4957112;28;19972;-81
2022/01/26 04:11:38;;;;;;;;;;;0.80;99.90;;;;;;4980343;28;19917;-81
2022/01/26 04:14:08;;;;;;;;;;;0.80;99.90;;;;;;4976661;28;19917;-81
2022/01/26 04:16:34;;;;;;;;;;;0.80;99.90;;;;;;4992679;28;19923;-80
2022/01/26 04:19:00;;;;;;;;;;;0.80;99.90;;;;;;4987264;28;19918;-80
2022/01/26 04:21:45;;;;;;;;;;;0.70;99.90;;;;;;4970621;28;20400;-80
2022/01/26 04:24:19;;;;;;;;;;;0.80;99.90;;;;;;4981372;28;19913;-80
2022/01/26 04:26:58;;;;;;;;;;;0.80;99.90;;;;;;4965066;28;19918;-81
2022/01/26 04:29:29;;;;;;;;;;;0.80;99.90;;;;;;4965674;28;19913;-80
2022/01/26 04:31:56;;;;;;;;;;;0.80;99.90;;;;;;4984196;28;19917;-81
2022/01/26 04:34:22;;;;;;;;;;;0.90;99.90;;;;;;4977802;28;19911;-80
2022/01/26 04:36:59;;;;;;;;;;;0.80;99.90;;;;;;4973646;28;19925;-80
2022/01/26 04:39:31;;;;;;;;;;;0.80;99.90;;;;;;4974081;28;19922;-80
2022/01/26 04:42:02;;;;;;;;;;;0.80;99.90;;;;;;4973226;28;19918;-80
2022/01/26 04:44:34;;;;;;;;;;;0.80;99.90;;;;;;4981471;28;20013;-79
2022/01/26 04:47:00;;;;;;;;;;;0.80;99.90;;;;;;4988389;28;20432;-81
2022/01/26 04:49:26;;;;;;;;;;;0.80;99.90;;;;;;4970753;28;20016;-80
2022/01/26 04:51:51;;;;;;;;;;;0.80;99.90;;;;;;4959618;28;19918;-80
2022/01/26 04:54:17;;;;;;;;;;;0.80;99.90;;;;;;4989814;28;19921;-80
2022/01/26 04:56:42;;;;;;;;;;;0.80;99.90;;;;;;4940193;28;19922;-81
2022/01/26 04:59:08;;;;;;;;;;;0.80;99.90;;;;;;4987730;28;19914;-81
2022/01/26 05:01:34;;;;;;;;;;;0.80;99.90;;;;;;4972555;28;19914;-80
2022/01/26 05:03:59;;;;;;;;;;;0.80;99.90;;;;;;4986654;28;19918;-80
2022/01/26 05:06:25;;;;;;;;;;;0.80;99.90;;;;;;4991354;28;19920;-80
2022/01/26 05:08:50;;;;;;;;;;;0.80;99.90;;;;;;4961552;28;19918;-80
2022/01/26 05:11:27;;;;;;;;;;;0.80;99.90;;;;;;4971357;28;19926;-80
2022/01/26 05:13:55;;;;;;;;;;;0.80;99.90;;;;;;4978114;28;19918;-80
2022/01/26 05:16:20;;;;;;;;;;;0.80;99.90;;;;;;4968298;28;19918;-80
2022/01/26 05:18:46;;;;;;;;;;;0.80;99.90;;;;;;4984003;28;19924;-80
2022/01/26 05:21:11;;;;;;;;;;;0.80;99.90;;;;;;4968950;28;19914;-80
2022/01/26 05:23:37;;;;;;;;;;;0.90;99.90;;;;;;4980562;28;19924;-80
2022/01/26 05:26:03;;;;;;;;;;;0.90;99.90;;;;;;4981498;28;19926;-81
2022/01/26 05:28:28;;;;;;;;;;;0.90;99.90;;;;;;4969212;28;19965;-79
2022/01/26 05:30:54;;;;;;;;;;;0.90;99.90;;;;;;4967027;28;20020;-80
2022/01/26 05:33:20;;;;;;;;;;;0.90;99.90;;;;;;4980462;28;19958;-81
2022/01/26 05:35:45;;;;;;;;;;;0.80;99.90;;;;;;4982456;28;20388;-80
2022/01/26 05:38:11;;;;;;;;;;;0.80;99.90;;;;;;4980004;28;19922;-81
2022/01/26 05:40:37;;;;;;;;;;;0.80;99.90;;;;;;4954442;28;19918;-80
2022/01/26 05:43:02;;;;;;;;;;;0.80;99.90;;;;;;4990496;28;19918;-80
2022/01/26 05:45:33;;;;;;;;;;;0.80;99.90;;;;;;4986904;28;19937;-81
2022/01/26 05:48:02;;;;;;;;;;;0.80;99.90;;;;;;4952352;28;20013;-80
2022/01/26 05:50:28;;;;;;;;;;;0.80;99.90;;;;;;4972479;28;20300;-81
2022/01/26 05:52:54;;;;;;;;;;;0.80;99.90;;;;;;4974812;28;19920;-80
2022/01/26 05:55:19;;;;;;;;;;;0.80;99.90;;;;;;4974348;28;19918;-82
2022/01/26 05:57:45;;;;;;;;;;;0.80;99.90;;;;;;4987809;28;19925;-79
2022/01/26 06:00:11;;;;;;;;;;;0.80;99.90;;;;;;4985322;28;19914;-81
2022/01/26 06:02:41;;;;;;;;;;;0.80;99.90;;;;;;4975075;28;20317;-81
2022/01/26 06:05:07;;;;;;;;;;;0.80;99.90;;;;;;4989376;28;19913;-80
2022/01/26 06:07:32;;;;;;;;;;;0.80;99.90;;;;;;4977356;28;19918;-80
2022/01/26 06:09:58;;;;;;;;;;;0.70;99.90;;;;;;4970850;28;20025;-80
2022/01/26 06:12:23;;;;;;;;;;;0.80;99.90;;;;;;4979526;28;19925;-80
2022/01/26 06:14:49;;;;;;;;;;;0.80;99.90;;;;;;4994256;28;20281;-79
2022/01/26 06:17:14;;;;;;;;;;;0.70;99.90;;;;;;4970946;28;19957;-80
2022/01/26 06:19:40;;;;;;;;;;;0.70;99.90;;;;;;4983946;28;19922;-81
2022/01/26 06:22:06;;;;;;;;;;;0.70;99.90;;;;;;4985879;28;19918;-81
2022/01/26 06:24:31;;;;;;;;;;;0.80;99.90;;;;;;4991681;28;19965;-81
2022/01/26 06:26:57;;;;;;;;;;;0.70;99.90;;;;;;4990558;28;19921;-81
2022/01/26 06:29:22;;;;;;;;;;;0.70;99.90;;;;;;4990885;28;20478;-81
2022/01/26 06:31:48;;;;;;;;;;;0.70;99.90;;;;;;4990221;28;19918;-80
2022/01/26 06:34:14;;;;;;;;;;;0.70;99.90;;;;;;4972554;28;19918;-81
2022/01/26 06:36:43;;;;;;;;;;;0.80;99.90;;;;;;4984534;28;19918;-81
2022/01/26 06:39:09;;;;;;;;;;;0.80;99.90;;;;;;5003284;28;20256;-81
2022/01/26 06:41:35;;;;;;;;;;;0.80;99.90;;;;;;5011248;28;19968;-81
2022/01/26 06:44:08;;;;;;;;;;;0.80;99.90;;;;;;5010347;28;20380;-81
2022/01/26 06:47:32;;;;;;;;;;;0.80;99.90;;;;;;4991234;28;20445;-81
2022/01/26 06:51:48;;;;;;;;;;;0.70;99.90;;;;;;4988075;28;19944;-81
2022/01/26 06:54:14;;;;;;;;;;;0.70;99.90;;;;;;4994181;28;19968;-81
2022/01/26 06:56:39;;;;;;;;;;;0.70;99.90;;;;;;4994059;28;19918;-81
2022/01/26 06:59:05;;;;;;;;;;;0.80;99.90;;;;;;4989946;28;19933;-81
2022/01/26 07:01:31;;;;;;;;;;;0.80;99.90;;;;;;4964888;28;20323;-81
2022/01/26 07:03:56;;;;;;;;;;;0.70;99.90;;;;;;4990797;28;20316;-81
2022/01/26 07:06:22;;;;;;;;;;;0.80;99.90;;;;;;4995145;28;19932;-81
2022/01/26 07:08:47;;;;;;;;;;;0.80;99.90;;;;;;4979375;28;20423;-81
2022/01/26 07:11:13;;;;;;;;;;;0.80;99.90;;;;;;4974525;28;19925;-81
2022/01/26 07:13:40;;;;;;;;;;;0.80;99.90;;;;;;4999446;28;19963;-81
2022/01/26 07:21:34;;;;;;;;;;;0.70;99.90;;;;;;4995031;28;19914;-81
2022/01/26 07:24:00;;;;;;;;;;;0.70;99.90;;;;;;4993959;28;19918;-81
2022/01/26 07:26:28;;;;;;;;;;;0.70;99.90;;;;;;4974325;28;20056;-81
2022/01/26 07:28:55;;;;;;;;;;;0.70;99.90;;;;;;4992888;28;20401;-81
2022/01/26 07:31:21;;;;;;;;;;;0.70;99.90;;;;;;4993166;28;19925;-81
2022/01/26 07:33:54;;;;;;;;;;;0.70;99.90;;;;;;4991055;28;21338;-80
2022/01/26 07:36:20;;;;;;;;;;;0.70;99.90;;;;;;4970023;28;20021;-81
2022/01/26 07:38:49;;;;;;;;;;;0.80;99.90;;;;;;4973140;28;20400;-81
2022/01/26 07:41:15;;;;;;;;;;;0.70;99.90;;;;;;4994250;28;19918;-81
2022/01/26 07:43:40;;;;;;;;;;;0.70;99.90;;;;;;4976208;28;19921;-81
2022/01/26 07:46:08;;;;;;;;;;;0.70;99.90;;;;;;4972674;28;19918;-81
2022/01/26 07:48:33;;;;;;;;;;;0.60;99.90;;;;;;4974758;28;19921;-81
2022/01/26 07:50:59;;;;;;;;;;;0.70;99.90;;;;;;4987022;28;19918;-81
2022/01/26 07:53:25;;;;;;;;;;;0.70;99.90;;;;;;4993089;28;20012;-81
2022/01/26 07:55:51;;;;;;;;;;;0.70;99.90;;;;;;4989630;28;19944;-81
2022/01/26 07:58:18;;;;;;;;;;;0.70;99.90;;;;;;4994163;28;19922;-81
2022/01/26 08:00:44;;;;;;;;;;;0.60;99.90;;;;;;4985859;28;19918;-81
2022/01/26 08:03:09;;;;;;;;;;;0.60;99.90;;;;;;4992970;28;19925;-81
2022/01/26 08:05:35;;;;;;;;;;;0.70;99.90;;;;;;4994793;28;19925;-81
2022/01/26 08:08:00;;;;;;;;;;;0.60;99.90;;;;;;4993672;28;20396;-81
2022/01/26 08:10:26;;;;;;;;;;;0.60;99.90;;;;;;4973398;28;19954;-81
2022/01/26 08:12:51;;;;;;;;;;;0.70;99.90;;;;;;4980369;28;19940;-81
2022/01/26 08:15:18;;;;;;;;;;;0.70;99.90;;;;;;5012596;28;20403;-81
2022/01/26 08:17:44;;;;;;;;;;;0.70;99.90;;;;;;4997032;28;20420;-81
2022/01/26 08:20:10;;;;;;;;;;;0.80;99.90;;;;;;4977271;28;20004;-81
2022/01/26 08:22:37;;;;;;;;;;;0.80;99.90;;;;;;4980428;28;20380;-81
2022/01/26 08:25:03;;;;;;;;;;;0.70;99.90;;;;;;4992596;28;19914;-81
2022/01/26 08:27:37;;;;;;;;;;;0.70;99.90;;;;;;4992478;28;19914;-81
2022/01/26 08:30:08;;;;;;;;;;;0.70;99.90;;;;;;4991690;28;20372;-81
2022/01/26 08:32:34;;;;;;;;;;;0.70;99.90;;;;;;4989667;28;19994;-81
2022/01/26 08:34:59;;;;;;;;;;;0.70;99.90;;;;;;4973096;28;19914;-81
2022/01/26 08:37:25;;;;;;;;;;;0.70;99.90;;;;;;4977420;28;19921;-81
2022/01/26 08:39:51;;;;;;;;;;;0.70;99.90;;;;;;4993301;28;19913;-81
2022/01/26 08:42:16;;;;;;;;;;;0.70;99.90;;;;;;4976379;28;19925;-81
2022/01/26 08:44:43;;;;;;;;;;;0.70;99.90;;;;;;4988877;28;19925;-81
2022/01/26 08:47:08;;;;;;;;;;;0.70;99.90;;;;;;4991537;28;19996;-81
2022/01/26 08:49:34;;;;;;;;;;;0.70;99.90;;;;;;4974329;28;20081;-81
2022/01/26 08:52:00;;;;;;;;;;;0.70;99.90;;;;;;4986481;28;20430;-82
2022/01/26 08:54:26;;;;;;;;;;;0.70;99.90;;;;;;4981344;28;19931;-81
2022/01/26 08:56:52;;;;;;;;;;;0.70;99.90;;;;;;4990464;28;19917;-81
2022/01/26 08:59:19;;;;;;;;;;;0.80;99.90;;;;;;4985697;28;20004;-82
2022/01/26 09:01:44;;;;;;;;;;;0.80;99.90;;;;;;4994389;28;19914;-81
2022/01/26 09:04:10;;;;;;;;;;;0.80;99.90;;;;;;4992768;28;19920;-81
2022/01/26 09:06:49;;;;;;;;;;;0.80;99.90;;;;;;4973197;28;19940;-81
2022/01/26 09:09:15;;;;;;;;;;;0.80;99.90;;;;;;4993488;28;20468;-81
2022/01/26 09:11:42;;;;;;;;;;;0.90;99.90;;;;;;4972370;28;19996;-81
2022/01/26 09:14:10;;;;;;;;;;;0.80;99.90;;;;;;4956279;28;19953;-82
2022/01/26 09:16:36;;;;;;;;;;;0.90;99.90;;;;;;4987794;28;20398;-82
2022/01/26 09:19:19;;;;;;;;;;;0.90;99.90;;;;;;4991670;28;19972;-81
2022/01/26 09:21:45;;;;;;;;;;;0.90;99.90;;;;;;4992193;28;19976;-82
2022/01/26 09:24:10;;;;;;;;;;;1.00;99.90;;;;;;4986119;28;20381;-81
2022/01/26 09:26:36;;;;;;;;;;;1.00;99.90;;;;;;4979372;28;20029;-81
2022/01/26 09:29:01;;;;;;;;;;;0.90;99.90;;;;;;4985178;28;20348;-81
2022/01/26 09:31:27;;;;;;;;;;;0.80;99.90;;;;;;4944123;28;20273;-81
2022/01/26 09:33:53;;;;;;;;;;;0.90;99.90;;;;;;4969588;28;19918;-82
2022/01/26 09:36:18;;;;;;;;;;;0.80;99.90;;;;;;4971551;28;19922;-81
2022/01/26 09:38:44;;;;;;;;;;;0.80;99.90;;;;;;4973197;28;19941;-82
2022/01/26 09:41:09;;;;;;;;;;;0.80;99.90;;;;;;4980230;28;19918;-82
2022/01/26 09:43:35;;;;;;;;;;;0.80;99.90;;;;;;4990802;28;19918;-81
2022/01/26 09:46:01;;;;;;;;;;;0.80;99.90;;;;;;4989194;28;19933;-81
2022/01/26 09:48:26;;;;;;;;;;;0.70;99.90;;;;;;4992574;28;20339;-81
2022/01/26 09:50:55;;;;;;;;;;;0.70;99.90;;;;;;4978073;28;19996;-81
2022/01/26 09:53:27;;;;;;;;;;;0.80;99.90;;;;;;4973710;28;19918;-82
2022/01/26 09:55:52;;;;;;;;;;;0.70;99.90;;;;;;4972031;28;19921;-81
2022/01/26 09:58:20;;;;;;;;;;;0.70;99.90;;;;;;4977221;28;19918;-81
2022/01/26 10:00:46;;;;;;;;;;;0.70;99.90;;;;;;4978041;28;20380;-81
2022/01/26 10:03:14;;;;;;;;;;;0.70;99.90;;;;;;4981034;28;19921;-81
2022/01/26 10:05:41;;;;;;;;;;;0.80;99.90;;;;;;4986145;28;20005;-81
2022/01/26 10:18:54;;;;;;;;;;;0.80;99.90;;;;;;4994767;28;19940;-81
2022/01/26 10:21:20;;;;;;;;;;;0.80;99.90;;;;;;4970266;28;19918;-81
2022/01/26 10:23:45;;;;;;;;;;;0.80;99.90;;;;;;4985141;28;20401;-82
2022/01/26 10:26:12;;;;;;;;;;;0.80;99.90;;;;;;4975709;28;20380;-82
2022/01/26 10:28:41;;;;;;;;;;;0.80;99.90;;;;;;4976351;28;19914;-82
2022/01/26 10:31:17;;;;;;;;;;;0.80;99.90;;;;;;4989579;28;20328;-81
2022/01/26 10:33:56;;;;;;;;;;;0.80;99.90;;;;;;4967959;28;19981;-82
2022/01/26 10:36:22;;;;;;;;;;;0.70;99.90;;;;;;4983214;28;19914;-81
2022/01/26 10:39:01;;;;;;;;;;;0.80;99.90;;;;;;4975789;28;19969;-81
2022/01/26 10:41:27;;;;;;;;;;;0.70;99.90;;;;;;4981949;28;19918;-82
2022/01/26 10:43:55;;;;;;;;;;;0.70;99.90;;;;;;4987023;28;19918;-82
2022/01/26 10:46:29;;;;;;;;;;;0.60;99.90;;;;;;4976479;28;19918;-81
2022/01/26 10:49:08;;;;;;;;;;;0.70;99.90;;;;;;4989803;28;19918;-82
2022/01/26 10:54:22;;;;;;;;;;;0.70;99.90;;;;;;4974970;28;19972;-82
2022/01/26 10:56:48;;;;;;;;;;;0.70;99.90;;;;;;4984467;28;19941;-82
2022/01/26 10:59:14;;;;;;;;;;;0.70;99.90;;;;;;4948638;28;19924;-81
2022/01/26 11:01:40;;;;;;;;;;;0.70;99.90;;;;;;4979458;28;19921;-81
2022/01/26 11:04:06;;;;;;;;;;;0.70;99.90;;;;;;4978992;28;19914;-82
2022/01/26 11:06:32;;;;;;;;;;;0.70;99.90;;;;;;4974912;28;19921;-81
2022/01/26 11:08:59;;;;;;;;;;;0.70;99.90;;;;;;4991295;28;19921;-82
2022/01/26 11:11:24;;;;;;;;;;;0.80;99.90;;;;;;4974124;28;19922;-82
2022/01/26 11:13:50;;;;;;;;;;;0.80;99.90;;;;;;4986924;28;20064;-81
2022/01/26 11:16:18;;;;;;;;;;;0.80;99.90;;;;;;4978297;28;20368;-81
2022/01/26 11:18:52;;;;;;;;;;;0.80;99.90;;;;;;4973908;28;19922;-82
2022/01/26 11:21:24;;;;;;;;;;;0.80;99.90;;;;;;4977472;28;19972;-82
2022/01/26 11:23:51;;;;;;;;;;;0.80;99.90;;;;;;4985292;28;19933;-82
2022/01/26 11:26:23;;;;;;;;;;;0.70;99.90;;;;;;4955726;28;20391;-82
2022/01/26 11:28:49;;;;;;;;;;;0.80;99.90;;;;;;4969875;28;20274;-81
2022/01/26 11:31:16;;;;;;;;;;;0.70;99.90;;;;;;4990005;28;19918;-82
2022/01/26 11:33:43;;;;;;;;;;;0.70;99.90;;;;;;4983822;28;19976;-81
2022/01/26 11:36:09;;;;;;;;;;;0.70;99.90;;;;;;4985501;28;20495;-81
2022/01/26 11:39:14;;;;;;;;;;;0.80;99.90;;;;;;4970041;28;19929;-82
2022/01/26 11:47:00;;;;;;;;;;;0.70;99.90;;;;;;4977731;28;19913;-80
2022/01/26 11:49:27;;;;;;;;;;;0.70;99.90;;;;;;4972491;28;19918;-82
2022/01/26 11:51:56;;;;;;;;;;;0.60;99.90;;;;;;4955539;28;19922;-82
2022/01/26 11:54:23;;;;;;;;;;;0.70;99.90;;;;;;4971807;28;20384;-82
2022/01/26 11:57:04;;;;;;;;;;;0.60;99.90;;;;;;4974585;28;19918;-82
2022/01/26 11:59:33;;;;;;;;;;;0.60;99.90;;;;;;4987360;28;19914;-83
2022/01/26 12:02:06;;;;;;;;;;;0.60;99.90;;;;;;4965055;28;20621;-82
2022/01/26 12:04:34;;;;;;;;;;;0.60;99.90;;;;;;4969018;28;19922;-81
2022/01/26 12:07:18;;;;;;;;;;;0.60;99.90;;;;;;4987344;28;20380;-81
2022/01/26 12:09:44;;;;;;;;;;;0.70;99.90;;;;;;4985792;28;20339;-81
2022/01/26 12:12:16;;;;;;;;;;;0.70;99.90;;;;;;4980782;28;19918;-82
2022/01/26 12:14:45;;;;;;;;;;;0.70;99.90;;;;;;4993544;28;19940;-81
2022/01/26 12:17:23;;;;;;;;;;;0.70;99.90;;;;;;4969124;28;19921;-81
2022/01/26 12:20:08;;;;;;;;;;;0.80;99.90;;;;;;4984363;28;19968;-80
2022/01/26 12:36:54;;;;;;;;;;;0.60;99.90;;;;;;4981324;28;19917;-83
2022/01/26 12:41:14;;;;;;;;;;;0.70;99.90;;;;;;4978700;28;20305;-82
2022/01/26 12:42:12;;;;;;;;;;;0.60;99.90;;;;;;4986734;28;19929;-81
2022/01/26 12:44:38;;;;;;;;;;;0.60;99.90;;;;;;4972335;28;19914;-81
2022/01/26 12:47:04;;;;;;;;;;;0.70;99.90;;;;;;4965306;28;20420;-82
2022/01/26 12:49:31;;;;;;;;;;;0.70;99.90;;;;;;4966468;28;20529;-82
2022/01/26 12:51:57;;;;;;;;;;;0.70;99.90;;;;;;4967803;28;19918;-81
2022/01/26 12:54:23;;;;;;;;;;;0.80;99.90;;;;;;4978920;28;20012;-82
2022/01/26 12:56:48;;;;;;;;;;;0.80;99.90;;;;;;4950240;28;19921;-81
2022/01/26 12:59:17;;;;;;;;;;;0.80;99.90;;;;;;4972042;28;20627;-84
2022/01/26 13:01:44;;;;;;;;;;;0.80;99.90;;;;;;4966374;28;20734;-85
2022/01/26 13:04:12;;;;;;;;;;;0.70;99.90;;;;;;4963407;28;19945;-82
2022/01/26 13:06:56;;;;;;;;;;;0.70;99.90;;;;;;4970729;28;19921;-82
2022/01/26 13:09:26;;;;;;;;;;;0.70;99.90;;;;;;4966536;28;20372;-83
2022/01/26 13:11:53;;;;;;;;;;;0.70;99.90;;;;;;4966207;28;19918;-83
2022/01/26 13:14:47;;;;;;;;;;;0.70;99.90;;;;;;4990290;28;19914;-84
2022/01/26 13:25:46;;;;;;;;;;;0.70;99.90;;;;;;4968676;28;19919;-82
2022/01/26 13:30:58;;;;;;;;;;;0.70;99.90;;;;;;4974554;28;19956;-83
2022/01/26 14:02:11;;;;;;;;;;;0.70;99.90;;;;;;4971996;28;20005;-82
2022/01/26 14:04:37;;;;;;;;;;;0.70;99.90;;;;;;4968546;28;19918;-81
2022/01/26 14:07:03;;;;;;;;;;;0.70;99.90;;;;;;4955806;28;19914;-81
2022/01/26 14:09:29;;;;;;;;;;;0.70;99.90;;;;;;4985214;28;19944;-82
2022/01/26 14:11:54;;;;;;;;;;;0.70;99.90;;;;;;4951012;28;20331;-82
2022/01/26 14:14:25;;;;;;;;;;;0.70;99.90;;;;;;4965010;28;19914;-81
2022/01/26 14:16:59;;;;;;;;;;;0.70;99.90;;;;;;4968432;28;20008;-84
2022/01/26 14:19:37;;;;;;;;;;;0.70;99.90;;;;;;4980760;28;20451;-82
2022/01/26 14:27:09;;;;;;;;;;;0.70;99.90;;;;;;4976352;28;20014;-83
2022/01/26 14:30:17;;;;;;;;;;;0.70;99.90;;;;;;4945830;28;20575;-81
2022/01/26 14:32:48;;;;;;;;;;;0.70;99.90;;;;;;4975045;28;19918;-83
2022/01/26 14:35:47;;;;;;;;;;;0.70;99.90;;;;;;4986176;28;20352;-82
2022/01/26 14:54:55;;;;;;;;;;;0.50;99.90;;;;;;4979730;28;19921;-82
2022/01/26 15:48:47;;;;;;;;;;;0.60;99.90;;;;;;4988242;28;20288;-81
2022/01/26 15:51:23;;;;;;;;;;;0.60;99.90;;;;;;4978611;28;20288;-81
2022/01/26 16:04:14;;;;;;;;;;;0.60;99.90;;;;;;4977854;28;19914;-81
2022/01/26 16:08:07;;;;;;;;;;;0.60;99.90;;;;;;4969496;28;19918;-81
2022/01/26 16:26:40;;;;;;;;;;;0.60;99.90;;;;;;4985445;28;19929;-80
2022/01/26 17:12:01;;;;;;;;;;;0.50;99.90;;;;;;4984847;28;19914;-81
2022/01/26 17:47:20;;;;;;;;;;;0.50;99.90;;;;;;4978579;28;19914;-80
2022/01/26 18:03:59;;;;;;;;;;;0.50;99.90;;;;;;4984880;28;19917;-80
2022/01/26 18:49:33;;;;;;;;;;;0.50;99.90;;;;;;4992558;28;20346;-80
2022/01/26 18:51:59;;;;;;;;;;;0.50;99.90;;;;;;4993312;28;19914;-83
2022/01/26 18:54:29;;;;;;;;;;;0.50;99.90;;;;;;4991468;28;19918;-81
2022/01/26 18:56:55;;;;;;;;;;;0.50;99.90;;;;;;4984579;28;19935;-82
2022/01/26 18:59:22;;;;;;;;;;;0.50;99.90;;;;;;4966269;28;19918;-81
2022/01/26 19:01:48;;;;;;;;;;;0.50;99.90;;;;;;4984788;28;19949;-82
2022/01/26 19:04:16;;;;;;;;;;;0.50;99.90;;;;;;4990039;28;20344;-82
2022/01/26 19:06:48;;;;;;;;;;;0.50;99.90;;;;;;4977384;28;19914;-81
2022/01/26 19:09:17;;;;;;;;;;;0.50;99.90;;;;;;4977609;28;19922;-82
2022/01/26 19:11:43;;;;;;;;;;;0.50;99.90;;;;;;4987140;28;19918;-81
2022/01/26 19:14:09;;;;;;;;;;;0.50;99.90;;;;;;4984768;28;20295;-81
2022/01/26 19:16:49;;;;;;;;;;;0.50;99.90;;;;;;4991064;28;19914;-81
2022/01/26 19:19:34;;;;;;;;;;;0.50;99.90;;;;;;4975836;28;20593;-80
2022/01/26 19:27:36;;;;;;;;;;;0.60;99.90;;;;;;4977136;28;19997;-81
2022/01/26 19:46:00;;;;;;;;;;;0.60;99.90;;;;;;4999275;28;19917;-81
2022/01/26 19:51:11;;;;;;;;;;;0.50;99.90;;;;;;4977946;28;19922;-81
2022/01/26 19:53:36;;;;;;;;;;;0.50;99.90;;;;;;4980568;28;20500;-80
2022/01/26 19:56:02;;;;;;;;;;;0.50;99.90;;;;;;4993265;28;19925;-81
2022/01/26 19:58:28;;;;;;;;;;;0.40;99.90;;;;;;4997401;28;19922;-82
2022/01/26 20:00:54;;;;;;;;;;;0.50;99.90;;;;;;4995418;28;20015;-82
2022/01/26 20:03:21;;;;;;;;;;;0.50;99.90;;;;;;4987467;28;19914;-81
2022/01/26 20:05:48;;;;;;;;;;;0.40;99.90;;;;;;4990017;28;20303;-81
2022/01/26 20:08:38;;;;;;;;;;;0.40;99.90;;;;;;4993778;28;20356;-81
2022/01/26 20:11:09;;;;;;;;;;;0.40;99.90;;;;;;4988937;28;20428;-82
2022/01/26 20:13:45;;;;;;;;;;;0.40;99.90;;;;;;4972678;28;19914;-81
2022/01/26 20:16:11;;;;;;;;;;;0.40;99.90;;;;;;4990105;28;19914;-80
2022/01/26 20:18:37;;;;;;;;;;;0.40;99.90;;;;;;4967035;28;19917;-81
2022/01/26 20:21:03;;;;;;;;;;;0.50;99.90;;;;;;4986443;28;19918;-82
2022/01/26 20:23:33;;;;;;;;;;;0.50;99.90;;;;;;4984810;28;19918;-80
2022/01/26 20:26:00;;;;;;;;;;;0.50;99.90;;;;;;4981710;28;20008;-81
2022/01/26 20:28:27;;;;;;;;;;;0.50;99.90;;;;;;4977711;28;20106;-83
2022/01/26 20:30:53;;;;;;;;;;;0.50;99.90;;;;;;4981862;28;19918;-80
2022/01/26 20:33:20;;;;;;;;;;;0.40;99.90;;;;;;4983518;28;20448;-81
2022/01/26 20:35:46;;;;;;;;;;;0.40;99.90;;;;;;4969893;28;19928;-81
2022/01/26 20:38:11;;;;;;;;;;;0.50;99.90;;;;;;4981013;28;19922;-80
2022/01/26 20:40:37;;;;;;;;;;;0.50;99.90;;;;;;4977402;28;19918;-81
2022/01/26 20:43:03;;;;;;;;;;;0.50;99.90;;;;;;4995278;28;19922;-80
2022/01/26 20:45:30;;;;;;;;;;;0.40;99.90;;;;;;4983172;28;19941;-80
2022/01/26 20:47:57;;;;;;;;;;;0.50;99.90;;;;;;4987285;28;19924;-79
2022/01/26 20:50:26;;;;;;;;;;;0.40;99.90;;;;;;4997342;28;20903;-82
2022/01/26 20:52:52;;;;;;;;;;;0.50;99.90;;;;;;4987388;28;19977;-81
2022/01/26 20:55:19;;;;;;;;;;;0.50;99.90;;;;;;4979600;28;19918;-80
2022/01/26 20:57:44;;;;;;;;;;;0.50;99.90;;;;;;4987129;28;19917;-81
2022/01/26 21:00:11;;;;;;;;;;;0.50;99.90;;;;;;4999348;28;20467;-82
2022/01/26 21:02:37;;;;;;;;;;;0.40;99.90;;;;;;4990516;28;20387;-83
2022/01/26 21:05:05;;;;;;;;;;;0.40;99.90;;;;;;4972387;28;21203;-80
2022/01/26 21:07:31;;;;;;;;;;;0.40;99.90;;;;;;4988324;28;20009;-80
2022/01/26 21:09:56;;;;;;;;;;;0.50;99.90;;;;;;4989343;28;20016;-80
2022/01/26 21:12:22;;;;;;;;;;;0.50;99.90;;;;;;4981500;28;19922;-81
2022/01/26 21:14:47;;;;;;;;;;;0.50;99.90;;;;;;4964223;28;19918;-81
2022/01/26 21:17:13;;;;;;;;;;;0.50;99.90;;;;;;4974256;28;19933;-80
2022/01/26 21:19:39;;;;;;;;;;;0.50;99.90;;;;;;4991166;28;19929;-80
2022/01/26 21:22:04;;;;;;;;;;;0.40;99.90;;;;;;4983661;28;19928;-80
2022/01/26 21:24:30;;;;;;;;;;;0.40;99.90;;;;;;4971643;28;19977;-81
2022/01/26 21:26:56;;;;;;;;;;;0.40;99.90;;;;;;4988516;28;19968;-80
2022/01/26 21:29:22;;;;;;;;;;;0.40;99.90;;;;;;4988118;28;19913;-81
2022/01/26 21:31:48;;;;;;;;;;;0.40;99.90;;;;;;4969466;28;19918;-81
2022/01/26 21:34:14;;;;;;;;;;;0.50;99.90;;;;;;4985310;28;20552;-80